createdAt,value
2019-02-22T00:01:01.605Z,83.30
2019-02-22T00:03:28.542Z,82.40
2019-02-22T00:05:55.496Z,82.80
2019-02-22T00:08:22.455Z,82.80
2019-02-22T00:10:49.434Z,82.80
2019-02-22T00:13:16.373Z,82.70
2019-02-22T00:15:43.330Z,83.40
2019-02-22T00:18:12.022Z,83.00
2019-02-22T00:20:41.201Z,83.60
2019-02-22T00:23:05.948Z,83.90
2019-02-22T00:25:32.914Z,83.80
2019-02-22T00:28:00.198Z,83.90
2019-02-22T00:30:27.106Z,82.90
2019-02-22T00:32:54.036Z,84.20
2019-02-22T00:35:21.019Z,83.60
2019-02-22T00:37:48.001Z,83.70
2019-02-22T00:40:14.952Z,83.70
2019-02-22T00:42:41.899Z,83.20
2019-02-22T00:45:08.848Z,83.20
2019-02-22T00:47:35.813Z,82.90
2019-02-22T00:50:02.798Z,82.90
2019-02-22T00:52:29.805Z,83.80
2019-02-22T00:54:56.725Z,84.10
2019-02-22T00:57:23.648Z,83.70
2019-02-22T00:59:50.628Z,84.00
2019-02-22T01:02:17.572Z,84.10
2019-02-22T01:04:44.633Z,84.10
2019-02-22T01:07:11.948Z,84.10
2019-02-22T01:09:38.908Z,84.10
2019-02-22T01:12:05.883Z,84.00
2019-02-22T01:14:32.866Z,83.80
2019-02-22T01:16:59.892Z,83.90
2019-02-22T01:19:27.390Z,84.10
2019-02-22T01:21:54.445Z,83.90
2019-02-22T01:24:21.749Z,84.00
2019-02-22T01:26:48.691Z,83.80
2019-02-22T01:29:15.682Z,83.90
2019-02-22T01:31:42.634Z,83.80
2019-02-22T01:34:09.573Z,84.00
2019-02-22T01:36:36.625Z,84.00
2019-02-22T01:39:04.780Z,84.00
2019-02-22T01:41:31.737Z,84.40
2019-02-22T01:43:58.672Z,84.20
2019-02-22T01:46:25.629Z,84.30
2019-02-22T01:48:52.629Z,84.40
2019-02-22T01:51:19.637Z,84.20
2019-02-22T01:53:46.584Z,84.60
2019-02-22T01:56:13.536Z,84.60
2019-02-22T01:58:48.422Z,84.60
2019-02-22T02:01:07.451Z,84.80
2019-02-22T02:03:34.393Z,84.80
2019-02-22T02:06:01.352Z,84.90
2019-02-22T02:08:30.369Z,84.10
2019-02-22T02:10:57.328Z,84.70
2019-02-22T02:13:24.310Z,85.80
2019-02-22T02:15:51.221Z,84.80
2019-02-22T02:18:18.165Z,85.20
2019-02-22T02:20:46.811Z,85.20
2019-02-22T02:23:13.736Z,85.50
2019-02-22T02:25:40.684Z,85.70
2019-02-22T02:28:07.627Z,85.70
2019-02-22T02:30:34.625Z,85.30
2019-02-22T02:33:01.512Z,85.10
2019-02-22T02:35:28.455Z,85.00
2019-02-22T02:37:55.383Z,85.20
2019-02-22T02:40:22.322Z,85.50
2019-02-22T02:42:49.294Z,85.80
2019-02-22T02:45:16.247Z,85.70
2019-02-22T02:47:43.203Z,85.50
2019-02-22T02:50:14.679Z,85.50
2019-02-22T02:52:41.618Z,85.50
2019-02-22T02:55:23.741Z,85.40
2019-02-22T02:57:50.718Z,86.40
2019-02-22T03:00:17.703Z,85.70
2019-02-22T03:02:44.647Z,85.60
2019-02-22T03:05:11.564Z,85.80
2019-02-22T03:07:40.910Z,86.00
2019-02-22T03:10:07.913Z,86.50
2019-02-22T03:12:34.860Z,86.90
2019-02-22T03:15:01.915Z,87.30
2019-02-22T03:17:28.849Z,87.30
2019-02-22T03:19:55.808Z,87.30
2019-02-22T03:22:25.259Z,87.40
2019-02-22T03:24:53.686Z,87.30
2019-02-22T03:27:19.195Z,87.20
2019-02-22T03:29:46.133Z,86.90
2019-02-22T03:32:13.101Z,87.40
2019-02-22T03:34:40.043Z,86.60
2019-02-22T03:37:07.002Z,86.90
2019-02-22T03:39:34.610Z,86.80
2019-02-22T03:42:01.532Z,87.10
2019-02-22T03:44:28.469Z,87.20
2019-02-22T03:46:55.436Z,87.40
2019-02-22T03:49:22.370Z,87.30
2019-02-22T03:51:49.304Z,87.40
2019-02-22T03:54:16.265Z,87.20
2019-02-22T03:56:43.191Z,86.90
2019-02-22T03:59:13.555Z,86.90
2019-02-22T04:01:40.504Z,86.70
2019-02-22T04:04:07.413Z,86.60
2019-02-22T04:06:34.353Z,86.50
2019-02-22T04:09:01.304Z,86.50
2019-02-22T04:11:28.249Z,86.70
2019-02-22T04:13:55.196Z,86.90
2019-02-22T04:16:22.174Z,87.00
2019-02-22T04:18:49.107Z,87.70
2019-02-22T04:21:16.055Z,87.80
2019-02-22T04:23:43.179Z,88.50
2019-02-22T04:26:10.131Z,89.00
2019-02-22T04:28:37.755Z,89.30
2019-02-22T04:31:04.785Z,89.20
2019-02-22T04:33:31.737Z,89.50
2019-02-22T04:35:58.677Z,89.60
2019-02-22T04:38:25.614Z,89.90
2019-02-22T04:40:52.551Z,89.60
2019-02-22T04:43:19.510Z,90.00
2019-02-22T04:45:46.489Z,90.00
2019-02-22T04:48:13.413Z,90.20
2019-02-22T04:50:40.360Z,90.30
2019-02-22T04:53:07.526Z,90.30
2019-02-22T04:55:34.462Z,90.70
2019-02-22T04:58:01.397Z,90.80
2019-02-22T05:00:28.364Z,91.10
2019-02-22T05:02:55.312Z,91.30
2019-02-22T05:05:22.241Z,91.80
2019-02-22T05:07:49.199Z,91.30
2019-02-22T05:10:16.138Z,91.70
2019-02-22T05:12:43.077Z,92.10
2019-02-22T05:15:12.971Z,92.30
2019-02-22T05:17:37.840Z,92.50
2019-02-22T05:20:04.934Z,92.50
2019-02-22T05:22:31.954Z,92.80
2019-02-22T05:25:00.545Z,92.70
2019-02-22T05:27:27.213Z,92.70
2019-02-22T05:29:54.159Z,92.80
2019-02-22T05:32:21.085Z,92.90
2019-02-22T05:34:48.103Z,93.10
2019-02-22T05:37:15.055Z,93.50
2019-02-22T05:39:42.030Z,93.70
2019-02-22T05:42:08.961Z,93.90
2019-02-22T05:44:35.963Z,93.80
2019-02-22T05:47:02.845Z,93.90
2019-02-22T05:49:29.789Z,94.00
2019-02-22T05:51:56.737Z,93.80
2019-02-22T05:54:23.689Z,94.00
2019-02-22T05:56:50.621Z,94.20
2019-02-22T05:59:17.584Z,94.60
2019-02-22T06:01:44.504Z,94.80
2019-02-22T06:04:11.462Z,94.50
2019-02-22T06:06:38.421Z,94.80
2019-02-22T06:09:05.456Z,94.70
2019-02-22T06:11:32.394Z,94.90
2019-02-22T06:13:59.360Z,94.80
2019-02-22T06:16:26.313Z,94.80
2019-02-22T06:18:53.223Z,95.20
2019-02-22T06:21:20.442Z,95.00
2019-02-22T06:23:47.403Z,94.90
2019-02-22T06:26:14.695Z,95.30
2019-02-22T06:28:41.683Z,95.70
2019-02-22T06:31:08.601Z,95.40
2019-02-22T06:33:35.537Z,95.60
2019-02-22T06:36:02.502Z,95.70
2019-02-22T06:38:29.432Z,96.00
2019-02-22T06:40:56.370Z,96.60
2019-02-22T06:43:23.332Z,96.50
2019-02-22T06:45:50.289Z,96.70
2019-02-22T06:48:17.234Z,96.50
2019-02-22T06:50:44.185Z,96.80
2019-02-22T06:53:11.112Z,97.10
2019-02-22T06:55:38.042Z,97.30
2019-02-22T06:58:04.989Z,97.30
2019-02-22T07:00:34.249Z,97.50
2019-02-22T07:03:01.231Z,97.10
2019-02-22T07:05:28.193Z,96.90
2019-02-22T07:07:56.938Z,96.50
2019-02-22T07:10:22.093Z,96.70
2019-02-22T07:12:56.672Z,96.60
2019-02-22T07:15:20.275Z,97.00
2019-02-22T07:17:47.233Z,96.90
2019-02-22T07:20:14.191Z,96.70
2019-02-22T07:22:41.139Z,96.60
2019-02-22T07:25:08.991Z,96.20
2019-02-22T07:27:36.465Z,96.20
2019-02-22T07:30:04.371Z,95.80
2019-02-22T07:32:31.368Z,95.70
2019-02-22T07:34:58.307Z,95.90
2019-02-22T07:37:25.260Z,95.80
2019-02-22T07:39:52.204Z,95.80
2019-02-22T07:42:19.166Z,95.80
2019-02-22T07:44:46.162Z,95.90
2019-02-22T07:47:13.171Z,96.00
2019-02-22T07:49:40.133Z,95.80
2019-02-22T07:52:07.077Z,95.50
2019-02-22T07:54:34.109Z,96.00
2019-02-22T07:57:01.073Z,96.20
2019-02-22T07:59:28.040Z,96.60
2019-02-22T08:01:55.023Z,96.40
2019-02-22T08:04:22.001Z,96.10
2019-02-22T08:06:48.968Z,96.10
2019-02-22T08:09:15.920Z,96.00
2019-02-22T08:11:43.569Z,95.70
2019-02-22T08:14:10.502Z,95.50
2019-02-22T08:16:37.446Z,95.50
2019-02-22T08:19:04.401Z,95.30
2019-02-22T08:21:31.369Z,95.30
2019-02-22T08:23:58.311Z,95.30
2019-02-22T08:26:25.262Z,95.20
2019-02-22T08:28:53.515Z,95.20
2019-02-22T08:31:20.461Z,95.10
2019-02-22T08:33:47.416Z,95.30
2019-02-22T08:36:14.370Z,95.00
2019-02-22T08:38:41.297Z,95.00
2019-02-22T08:41:08.272Z,94.60
2019-02-22T08:43:35.204Z,94.00
2019-02-22T08:46:02.136Z,93.80
2019-02-22T08:48:29.078Z,93.40
2019-02-22T08:50:56.014Z,93.10
2019-02-22T08:53:22.960Z,93.00
2019-02-22T08:55:49.967Z,92.40
2019-02-22T08:58:16.880Z,92.30
2019-02-22T09:00:43.802Z,91.60
2019-02-22T09:03:10.768Z,91.70
2019-02-22T09:05:37.720Z,91.20
2019-02-22T09:08:04.776Z,91.00
2019-02-22T09:10:31.773Z,91.20
2019-02-22T09:12:58.705Z,91.20
2019-02-22T09:15:25.705Z,91.40
2019-02-22T09:17:55.237Z,91.80
2019-02-22T09:20:19.690Z,91.80
2019-02-22T09:22:46.682Z,91.90
2019-02-22T09:25:13.610Z,91.20
2019-02-22T09:27:40.583Z,91.50
2019-02-22T09:30:08.877Z,92.00
2019-02-22T09:32:35.915Z,91.40
2019-02-22T09:35:03.282Z,91.20
2019-02-22T09:37:30.292Z,91.50
2019-02-22T09:39:57.251Z,91.40
2019-02-22T09:42:24.220Z,91.50
2019-02-22T09:44:51.123Z,91.30
2019-02-22T09:47:18.064Z,90.70
2019-02-22T09:49:45.003Z,90.50
2019-02-22T09:52:11.935Z,90.60
2019-02-22T09:54:38.953Z,90.80
2019-02-22T09:57:05.855Z,91.00
2019-02-22T09:59:33.012Z,90.30
2019-02-22T10:01:59.991Z,89.20
2019-02-22T10:04:26.947Z,86.40
2019-02-22T10:06:53.893Z,82.00
2019-02-22T10:09:20.885Z,80.50
2019-02-22T10:11:48.119Z,80.20
2019-02-22T10:14:14.959Z,80.60
2019-02-22T10:16:41.969Z,82.00
2019-02-22T10:19:08.982Z,83.70
2019-02-22T10:21:36.009Z,80.70
2019-02-22T10:24:03.016Z,79.40
2019-02-22T10:26:30.129Z,80.50
2019-02-22T10:28:57.128Z,80.50
2019-02-22T10:31:25.498Z,79.80
2019-02-22T10:33:52.485Z,79.20
2019-02-22T10:36:19.559Z,77.20
2019-02-22T10:38:46.615Z,73.80
2019-02-22T10:41:13.660Z,72.20
2019-02-22T10:43:40.682Z,70.90
2019-02-22T10:46:07.666Z,67.80
2019-02-22T10:48:34.693Z,62.10
2019-02-22T10:51:01.665Z,56.90
2019-02-22T10:53:28.640Z,56.80
2019-02-22T10:55:55.735Z,55.00
2019-02-22T10:58:22.754Z,56.90
2019-02-22T11:00:49.715Z,59.80
2019-02-22T11:03:17.000Z,63.40
2019-02-22T11:05:43.977Z,66.20
2019-02-22T11:08:12.701Z,67.20
2019-02-22T11:10:39.766Z,68.80
2019-02-22T11:13:06.833Z,69.60
2019-02-22T11:15:33.835Z,70.10
2019-02-22T11:18:00.912Z,69.10
2019-02-22T11:20:27.900Z,68.90
2019-02-22T11:22:55.017Z,69.70
2019-02-22T11:25:21.981Z,68.30
2019-02-22T11:27:48.928Z,67.80
2019-02-22T11:30:15.879Z,67.70
2019-02-22T11:32:43.243Z,66.50
2019-02-22T11:35:10.269Z,64.90
2019-02-22T11:37:37.280Z,62.10
2019-02-22T11:40:04.432Z,59.20
2019-02-22T11:42:31.417Z,59.10
2019-02-22T11:44:58.659Z,59.70
2019-02-22T11:47:25.639Z,60.20
2019-02-22T11:49:52.645Z,61.00
2019-02-22T11:52:19.634Z,62.50
2019-02-22T11:54:46.615Z,63.20
2019-02-22T11:57:13.601Z,63.60
2019-02-22T11:59:40.579Z,63.10
2019-02-22T12:02:07.571Z,62.70
2019-02-22T12:04:34.561Z,63.40
2019-02-22T12:07:01.645Z,64.40
2019-02-22T12:09:28.598Z,63.50
2019-02-22T12:11:55.586Z,63.60
2019-02-22T12:14:22.574Z,63.70
2019-02-22T12:16:49.536Z,63.60
2019-02-22T12:19:16.514Z,63.80
2019-02-22T12:21:43.496Z,64.30
2019-02-22T12:24:10.457Z,64.40
2019-02-22T12:26:37.554Z,64.50
2019-02-22T12:29:04.605Z,64.30
2019-02-22T12:31:31.700Z,63.80
2019-02-22T12:34:00.002Z,64.30
2019-02-22T12:36:26.997Z,63.80
2019-02-22T12:38:53.964Z,63.50
2019-02-22T12:41:20.975Z,64.00
2019-02-22T12:43:49.024Z,64.20
2019-02-22T12:46:15.969Z,63.70
2019-02-22T12:48:52.090Z,64.90
2019-02-22T12:51:19.126Z,64.30
2019-02-22T12:53:46.095Z,64.60
2019-02-22T12:56:13.124Z,64.90
2019-02-22T12:58:40.148Z,65.00
2019-02-22T13:01:07.177Z,64.20
2019-02-22T13:03:34.161Z,64.30
2019-02-22T13:06:01.239Z,63.10
2019-02-22T13:08:28.255Z,62.60
2019-02-22T13:10:55.272Z,62.70
2019-02-22T13:13:22.264Z,63.30
2019-02-22T13:15:49.529Z,63.90
2019-02-22T13:18:16.480Z,63.60
2019-02-22T13:20:43.510Z,63.50
2019-02-22T13:23:10.496Z,63.70
2019-02-22T13:25:37.468Z,63.30
2019-02-22T13:28:04.503Z,63.30
2019-02-22T13:30:31.448Z,62.40
2019-02-22T13:32:58.441Z,62.00
2019-02-22T13:35:26.677Z,62.30
2019-02-22T13:37:53.595Z,62.70
2019-02-22T13:40:20.642Z,62.20
2019-02-22T13:42:47.644Z,62.10
2019-02-22T13:45:25.511Z,61.80
2019-02-22T13:47:41.814Z,61.30
2019-02-22T13:50:10.693Z,60.20
2019-02-22T13:52:57.526Z,60.20
2019-02-22T13:55:25.015Z,59.90
2019-02-22T13:58:00.381Z,59.70
2019-02-22T14:00:27.348Z,59.00
2019-02-22T14:02:54.359Z,58.80
2019-02-22T14:05:30.643Z,59.00
2019-02-22T14:07:57.678Z,59.10
2019-02-22T14:10:24.713Z,58.70
2019-02-22T14:12:51.687Z,58.60
2019-02-22T14:15:18.942Z,58.30
2019-02-22T14:17:45.699Z,57.90
2019-02-22T14:20:12.622Z,57.20
2019-02-22T14:22:39.709Z,56.80
2019-02-22T14:25:06.655Z,57.30
2019-02-22T14:27:33.818Z,56.70
2019-02-22T14:30:00.822Z,55.50
2019-02-22T14:32:27.793Z,56.20
2019-02-22T14:34:54.807Z,56.60
2019-02-22T14:37:22.382Z,56.60
2019-02-22T14:40:00.115Z,56.20
2019-02-22T14:42:16.409Z,56.00
2019-02-22T14:44:43.432Z,55.50
2019-02-22T14:47:10.416Z,56.20
2019-02-22T14:49:37.468Z,56.90
2019-02-22T14:52:04.408Z,57.20
2019-02-22T14:54:31.387Z,55.50
2019-02-22T14:56:58.333Z,55.80
2019-02-22T14:59:25.277Z,54.70
2019-02-22T15:01:52.321Z,54.50
2019-02-22T15:04:19.341Z,54.90
2019-02-22T15:06:46.325Z,55.70
2019-02-22T15:09:13.269Z,55.20
2019-02-22T15:11:40.273Z,54.80
2019-02-22T15:14:07.289Z,55.80
2019-02-22T15:16:40.117Z,56.50
2019-02-22T15:19:07.077Z,56.40
2019-02-22T15:21:34.595Z,56.10
2019-02-22T15:24:01.106Z,55.90
2019-02-22T15:26:28.114Z,56.40
2019-02-22T15:28:55.363Z,57.30
2019-02-22T15:31:22.556Z,56.40
2019-02-22T15:33:49.556Z,56.80
2019-02-22T15:36:16.533Z,57.50
2019-02-22T15:38:43.671Z,57.10
2019-02-22T15:41:10.670Z,57.60
2019-02-22T15:43:37.676Z,57.70
2019-02-22T15:46:12.142Z,58.00
2019-02-22T15:48:31.669Z,58.50
2019-02-22T15:50:58.684Z,58.80
2019-02-22T15:53:25.633Z,58.80
2019-02-22T15:55:52.692Z,59.40
2019-02-22T15:58:19.655Z,59.70
2019-02-22T16:00:46.792Z,60.00
2019-02-22T16:03:13.761Z,59.90
2019-02-22T16:05:42.598Z,59.90
2019-02-22T16:08:09.560Z,60.30
2019-02-22T16:10:36.552Z,60.40
2019-02-22T16:13:04.906Z,61.00
2019-02-22T16:15:32.040Z,61.40
2019-02-22T16:17:59.072Z,61.20
2019-02-22T16:20:26.054Z,61.80
2019-02-22T16:22:53.090Z,62.30
2019-02-22T16:25:20.350Z,62.40
2019-02-22T16:27:47.093Z,62.90
2019-02-22T16:30:14.525Z,63.30
2019-02-22T16:32:41.485Z,63.40
2019-02-22T16:35:08.473Z,63.50
2019-02-22T16:37:35.558Z,63.90
2019-02-22T16:40:05.869Z,63.90
2019-02-22T16:42:32.906Z,64.50
2019-02-22T16:44:59.880Z,64.70
2019-02-22T16:47:27.062Z,64.70
2019-02-22T16:49:54.343Z,64.80
2019-02-22T16:52:21.534Z,65.40
2019-02-22T16:54:48.602Z,66.00
2019-02-22T16:57:15.600Z,66.30
2019-02-22T16:59:42.621Z,67.20
2019-02-22T17:02:09.590Z,66.10
2019-02-22T17:04:37.581Z,66.70
2019-02-22T17:07:04.580Z,66.20
2019-02-22T17:09:33.213Z,67.30
2019-02-22T17:12:06.148Z,67.90
2019-02-22T17:14:25.506Z,68.00
2019-02-22T17:16:52.595Z,68.50
2019-02-22T17:19:19.552Z,68.20
2019-02-22T17:21:46.528Z,68.30
2019-02-22T17:24:13.508Z,68.50
2019-02-22T17:26:40.525Z,68.50
2019-02-22T17:29:07.466Z,68.50
2019-02-22T17:31:35.177Z,68.70
2019-02-22T17:34:02.222Z,68.90
2019-02-22T17:36:29.484Z,69.30
2019-02-22T17:38:56.473Z,69.40
2019-02-22T17:41:25.104Z,69.70
2019-02-22T17:43:52.043Z,70.00
2019-02-22T17:46:19.111Z,70.00
2019-02-22T17:48:46.062Z,70.10
2019-02-22T17:51:13.022Z,70.40
2019-02-22T17:53:40.085Z,71.00
2019-02-22T17:56:07.015Z,71.30
2019-02-22T17:58:34.065Z,71.90
2019-02-22T18:01:01.069Z,72.20
2019-02-22T18:03:28.192Z,72.70
2019-02-22T18:05:55.174Z,73.00
2019-02-22T18:08:22.133Z,73.40
2019-02-22T18:10:49.085Z,73.60
2019-02-22T18:13:16.120Z,73.60
2019-02-22T18:15:43.165Z,73.80
2019-02-22T18:18:10.276Z,73.90
2019-02-22T18:20:37.258Z,74.00
2019-02-22T18:23:04.300Z,74.40
2019-02-22T18:25:31.229Z,74.70
2019-02-22T18:27:58.217Z,74.40
2019-02-22T18:30:25.252Z,74.60
2019-02-22T18:32:52.264Z,74.90
2019-02-22T18:35:19.229Z,74.90
2019-02-22T18:37:46.228Z,75.20
2019-02-22T18:40:13.201Z,75.20
2019-02-22T18:42:43.435Z,75.50
2019-02-22T18:45:10.408Z,75.70
2019-02-22T18:47:37.432Z,75.90
2019-02-22T18:50:05.384Z,76.20
2019-02-22T18:52:32.396Z,76.50
2019-02-22T18:54:59.411Z,76.50
2019-02-22T18:57:27.225Z,76.80
2019-02-22T18:59:54.257Z,77.10
2019-02-22T19:02:21.291Z,77.40
2019-02-22T19:04:49.146Z,77.50
2019-02-22T19:07:16.200Z,78.50
2019-02-22T19:09:43.184Z,78.30
2019-02-22T19:12:10.130Z,78.80
2019-02-22T19:14:37.114Z,79.00
2019-02-22T19:17:04.058Z,79.00
2019-02-22T19:19:31.090Z,79.10
2019-02-22T19:21:58.220Z,79.60
2019-02-22T19:24:25.168Z,79.60
2019-02-22T19:26:53.123Z,79.90
2019-02-22T19:29:20.209Z,81.00
2019-02-22T19:31:47.302Z,81.20
2019-02-22T19:34:14.449Z,81.70
2019-02-22T19:36:41.496Z,82.40
2019-02-22T19:39:08.707Z,81.30
2019-02-22T19:41:35.644Z,81.20
2019-02-22T19:44:03.649Z,81.20
2019-02-22T19:46:30.692Z,81.20
2019-02-22T19:48:57.793Z,81.40
2019-02-22T19:51:24.781Z,81.80
2019-02-22T19:53:51.915Z,81.30
2019-02-22T19:56:18.897Z,81.60
2019-02-22T19:58:45.885Z,81.90
2019-02-22T20:01:12.972Z,82.80
2019-02-22T20:03:40.025Z,82.50
2019-02-22T20:06:07.089Z,82.50
2019-02-22T20:08:35.679Z,82.40
2019-02-22T20:11:02.660Z,82.20
2019-02-22T20:13:30.844Z,82.20
2019-02-22T20:15:57.909Z,81.70
2019-02-22T20:18:24.904Z,81.60
2019-02-22T20:20:52.417Z,82.40
2019-02-22T20:23:19.452Z,83.40
2019-02-22T20:25:46.412Z,83.50
2019-02-22T20:28:13.433Z,84.30
2019-02-22T20:30:40.376Z,84.80
2019-02-22T20:33:07.593Z,84.30
2019-02-22T20:35:34.544Z,84.10
2019-02-22T20:38:01.673Z,83.40
2019-02-22T20:40:28.677Z,83.20
2019-02-22T20:42:55.668Z,83.60
2019-02-22T20:45:24.212Z,83.60
2019-02-22T20:47:51.200Z,83.50
2019-02-22T20:50:18.207Z,84.20
2019-02-22T20:52:45.200Z,84.30
2019-02-22T20:55:12.147Z,84.00
2019-02-22T20:57:39.222Z,84.10
2019-02-22T21:00:12.804Z,84.30
2019-02-22T21:02:39.862Z,84.40
2019-02-22T21:05:08.087Z,84.50
2019-02-22T21:07:35.288Z,84.40
2019-02-22T21:10:02.356Z,84.30
2019-02-22T21:12:29.305Z,84.20
2019-02-22T21:14:56.297Z,84.60
2019-02-22T21:17:23.537Z,84.80
2019-02-22T21:19:50.468Z,85.00
2019-02-22T21:22:17.907Z,85.20
2019-02-22T21:24:44.879Z,85.10
2019-02-22T21:27:11.981Z,85.30
2019-02-22T21:29:39.302Z,84.50
2019-02-22T21:32:06.116Z,85.00
2019-02-22T21:34:33.049Z,85.10
2019-02-22T21:37:00.035Z,85.20
2019-02-22T21:39:27.031Z,84.70
2019-02-22T21:41:54.039Z,85.00
2019-02-22T21:44:20.971Z,84.90
2019-02-22T21:46:49.249Z,84.70
2019-02-22T21:49:16.300Z,85.70
2019-02-22T21:51:43.326Z,86.20
2019-02-22T21:54:10.288Z,86.50
2019-02-22T21:56:37.285Z,86.70
2019-02-22T21:59:04.220Z,87.20
2019-02-22T22:01:31.253Z,86.80
2019-02-22T22:03:58.242Z,87.10
2019-02-22T22:06:25.212Z,87.40
2019-02-22T22:08:52.275Z,86.90
2019-02-22T22:11:19.210Z,87.00
2019-02-22T22:13:46.261Z,87.20
2019-02-22T22:16:13.228Z,87.30
2019-02-22T22:18:40.583Z,87.30
2019-02-22T22:21:07.560Z,87.40
2019-02-22T22:23:34.561Z,87.10
2019-02-22T22:26:01.522Z,87.50
2019-02-22T22:28:28.538Z,87.70
2019-02-22T22:30:55.546Z,87.90
2019-02-22T22:33:22.598Z,88.50
2019-02-22T22:35:49.656Z,87.20
2019-02-22T22:38:16.604Z,86.70
2019-02-22T22:40:43.571Z,86.60
2019-02-22T22:43:10.690Z,86.40
2019-02-22T22:45:37.822Z,86.20
2019-02-22T22:48:05.928Z,86.50
2019-02-22T22:50:32.936Z,86.70
2019-02-22T22:52:59.920Z,86.60
2019-02-22T22:55:26.957Z,86.30
2019-02-22T22:57:54.043Z,86.20
2019-02-22T23:00:32.287Z,86.60
2019-02-22T23:03:00.080Z,87.40
2019-02-22T23:05:27.200Z,87.30
2019-02-22T23:07:54.220Z,87.80
2019-02-22T23:10:21.248Z,87.40
2019-02-22T23:12:48.297Z,87.30
2019-02-22T23:15:15.367Z,87.80
2019-02-22T23:17:42.605Z,87.70
2019-02-22T23:20:10.241Z,87.80
2019-02-22T23:22:38.033Z,88.00
2019-02-22T23:25:04.544Z,88.40
2019-02-22T23:27:32.261Z,88.10
2019-02-22T23:29:59.270Z,87.90
2019-02-22T23:32:26.363Z,88.20
2019-02-22T23:34:53.637Z,87.70
2019-02-22T23:37:21.552Z,87.80
2019-02-22T23:39:49.244Z,87.60
2019-02-22T23:42:16.293Z,87.40
2019-02-22T23:44:43.313Z,87.60
2019-02-22T23:47:10.477Z,87.90
2019-02-22T23:49:37.839Z,87.70
2019-02-22T23:52:04.799Z,87.50
2019-02-22T23:54:31.827Z,87.40
2019-02-22T23:56:58.888Z,87.50
2019-02-22T23:59:25.870Z,87.60
